sensor_id;sensor_type;location;lat;lon;timestamp;P1;durP1;ratioP1;P2;durP2;ratioP2
53269;SDS011;39159;45.634;9.420;2023-01-01T00:00:02;204.30;;;111.82;;
53269;SDS011;39159;45.634;9.420;2023-01-01T00:02:30;194.77;;;107.45;;
53269;SDS011;39159;45.634;9.420;2023-01-01T00:04:56;156.60;;;92.25;;
53269;SDS011;39159;45.634;9.420;2023-01-01T00:07:21;207.93;;;112.60;;
53269;SDS011;39159;45.634;9.420;2023-01-01T00:09:47;214.82;;;117.57;;
53269;SDS011;39159;45.634;9.420;2023-01-01T00:12:31;208.27;;;112.07;;
53269;SDS011;39159;45.634;9.420;2023-01-01T00:14:57;236.68;;;125.50;;
53269;SDS011;39159;45.634;9.420;2023-01-01T00:17:23;238.25;;;125.82;;
53269;SDS011;39159;45.634;9.420;2023-01-01T00:19:48;235.77;;;127.30;;
53269;SDS011;39159;45.634;9.420;2023-01-01T00:22:13;246.02;;;131.15;;
53269;SDS011;39159;45.634;9.420;2023-01-01T00:24:39;321.98;;;164.77;;
53269;SDS011;39159;45.634;9.420;2023-01-01T00:27:04;343.33;;;178.00;;
53269;SDS011;39159;45.634;9.420;2023-01-01T00:29:30;314.85;;;168.27;;
53269;SDS011;39159;45.634;9.420;2023-01-01T00:31:56;300.38;;;159.23;;
53269;SDS011;39159;45.634;9.420;2023-01-01T00:34:21;298.45;;;160.95;;
53269;SDS011;39159;45.634;9.420;2023-01-01T00:36:47;297.88;;;157.20;;
53269;SDS011;39159;45.634;9.420;2023-01-01T00:39:12;263.50;;;141.23;;
53269;SDS011;39159;45.634;9.420;2023-01-01T00:41:38;262.65;;;138.55;;
53269;SDS011;39159;45.634;9.420;2023-01-01T00:44:03;258.13;;;135.38;;
53269;SDS011;39159;45.634;9.420;2023-01-01T00:46:28;252.00;;;134.65;;
53269;SDS011;39159;45.634;9.420;2023-01-01T00:48:54;260.15;;;137.63;;
53269;SDS011;39159;45.634;9.420;2023-01-01T00:51:19;236.93;;;130.65;;
53269;SDS011;39159;45.634;9.420;2023-01-01T00:53:45;229.23;;;124.18;;
53269;SDS011;39159;45.634;9.420;2023-01-01T00:56:10;227.65;;;122.57;;
53269;SDS011;39159;45.634;9.420;2023-01-01T00:58:36;243.60;;;127.55;;
53269;SDS011;39159;45.634;9.420;2023-01-01T01:01:01;242.07;;;130.75;;
53269;SDS011;39159;45.634;9.420;2023-01-01T01:03:27;238.85;;;131.15;;
53269;SDS011;39159;45.634;9.420;2023-01-01T01:05:57;221.95;;;123.50;;
53269;SDS011;39159;45.634;9.420;2023-01-01T01:08:29;203.88;;;112.05;;
53269;SDS011;39159;45.634;9.420;2023-01-01T01:11:07;196.93;;;111.15;;
53269;SDS011;39159;45.634;9.420;2023-01-01T01:13:38;190.10;;;109.03;;
53269;SDS011;39159;45.634;9.420;2023-01-01T01:16:08;185.43;;;104.45;;
53269;SDS011;39159;45.634;9.420;2023-01-01T01:18:35;209.18;;;115.15;;
53269;SDS011;39159;45.634;9.420;2023-01-01T01:21:00;216.07;;;119.57;;
53269;SDS011;39159;45.634;9.420;2023-01-01T01:23:26;217.98;;;124.03;;
53269;SDS011;39159;45.634;9.420;2023-01-01T01:25:51;206.27;;;115.25;;
53269;SDS011;39159;45.634;9.420;2023-01-01T01:28:17;245.50;;;131.38;;
53269;SDS011;39159;45.634;9.420;2023-01-01T01:30:42;218.00;;;122.07;;
53269;SDS011;39159;45.634;9.420;2023-01-01T01:33:08;216.15;;;115.95;;
53269;SDS011;39159;45.634;9.420;2023-01-01T01:35:33;199.65;;;108.93;;
53269;SDS011;39159;45.634;9.420;2023-01-01T01:37:59;193.35;;;109.63;;
53269;SDS011;39159;45.634;9.420;2023-01-01T01:40:24;217.57;;;118.90;;
53269;SDS011;39159;45.634;9.420;2023-01-01T01:42:50;190.45;;;108.13;;
53269;SDS011;39159;45.634;9.420;2023-01-01T01:45:16;192.15;;;109.05;;
53269;SDS011;39159;45.634;9.420;2023-01-01T01:47:55;188.13;;;107.55;;
53269;SDS011;39159;45.634;9.420;2023-01-01T01:55:38;189.93;;;103.43;;
53269;SDS011;39159;45.634;9.420;2023-01-01T01:58:08;188.77;;;106.72;;
53269;SDS011;39159;45.634;9.420;2023-01-01T02:00:35;221.93;;;119.70;;
53269;SDS011;39159;45.634;9.420;2023-01-01T02:03:02;173.80;;;102.45;;
53269;SDS011;39159;45.634;9.420;2023-01-01T02:05:32;213.73;;;115.63;;
53269;SDS011;39159;45.634;9.420;2023-01-01T02:07:59;199.07;;;109.78;;
53269;SDS011;39159;45.634;9.420;2023-01-01T02:10:25;196.90;;;109.28;;
53269;SDS011;39159;45.634;9.420;2023-01-01T02:12:52;202.35;;;112.40;;
53269;SDS011;39159;45.634;9.420;2023-01-01T02:15:17;195.70;;;106.90;;
53269;SDS011;39159;45.634;9.420;2023-01-01T02:28:43;189.30;;;102.65;;
53269;SDS011;39159;45.634;9.420;2023-01-01T02:31:31;205.50;;;110.10;;
53269;SDS011;39159;45.634;9.420;2023-01-01T02:34:02;210.07;;;112.85;;
53269;SDS011;39159;45.634;9.420;2023-01-01T02:36:31;201.45;;;111.95;;
53269;SDS011;39159;45.634;9.420;2023-01-01T02:39:01;181.10;;;105.32;;
53269;SDS011;39159;45.634;9.420;2023-01-01T02:41:30;198.95;;;111.80;;
53269;SDS011;39159;45.634;9.420;2023-01-01T02:44:01;205.77;;;114.05;;
53269;SDS011;39159;45.634;9.420;2023-01-01T02:46:33;203.57;;;109.53;;
53269;SDS011;39159;45.634;9.420;2023-01-01T02:49:00;179.98;;;100.07;;
53269;SDS011;39159;45.634;9.420;2023-01-01T02:51:45;169.90;;;96.22;;
53269;SDS011;39159;45.634;9.420;2023-01-01T02:57:08;199.68;;;107.40;;
53269;SDS011;39159;45.634;9.420;2023-01-01T02:59:59;170.63;;;96.38;;
53269;SDS011;39159;45.634;9.420;2023-01-01T03:02:53;159.23;;;91.93;;
53269;SDS011;39159;45.634;9.420;2023-01-01T03:08:03;151.52;;;88.28;;
53269;SDS011;39159;45.634;9.420;2023-01-01T03:10:46;166.55;;;93.20;;
53269;SDS011;39159;45.634;9.420;2023-01-01T03:15:50;157.27;;;90.93;;
53269;SDS011;39159;45.634;9.420;2023-01-01T03:21:34;183.40;;;99.13;;
53269;SDS011;39159;45.634;9.420;2023-01-01T03:24:23;150.90;;;87.30;;
53269;SDS011;39159;45.634;9.420;2023-01-01T03:26:51;146.85;;;84.85;;
53269;SDS011;39159;45.634;9.420;2023-01-01T03:29:21;170.70;;;96.97;;
53269;SDS011;39159;45.634;9.420;2023-01-01T03:31:49;151.52;;;87.40;;
53269;SDS011;39159;45.634;9.420;2023-01-01T03:34:19;162.20;;;89.75;;
53269;SDS011;39159;45.634;9.420;2023-01-01T03:36:50;157.57;;;91.45;;
53269;SDS011;39159;45.634;9.420;2023-01-01T03:39:23;157.80;;;87.47;;
53269;SDS011;39159;45.634;9.420;2023-01-01T03:41:58;182.32;;;103.18;;
53269;SDS011;39159;45.634;9.420;2023-01-01T03:44:45;180.90;;;101.15;;
53269;SDS011;39159;45.634;9.420;2023-01-01T03:47:15;177.77;;;98.25;;
53269;SDS011;39159;45.634;9.420;2023-01-01T03:49:41;169.50;;;95.13;;
53269;SDS011;39159;45.634;9.420;2023-01-01T04:00:20;179.40;;;98.15;;
53269;SDS011;39159;45.634;9.420;2023-01-01T04:02:59;171.52;;;97.07;;
53269;SDS011;39159;45.634;9.420;2023-01-01T04:05:29;205.80;;;108.60;;
53269;SDS011;39159;45.634;9.420;2023-01-01T04:07:56;190.95;;;104.97;;
53269;SDS011;39159;45.634;9.420;2023-01-01T04:10:26;204.95;;;107.55;;
53269;SDS011;39159;45.634;9.420;2023-01-01T04:12:54;177.75;;;100.07;;
53269;SDS011;39159;45.634;9.420;2023-01-01T04:15:22;185.02;;;102.15;;
53269;SDS011;39159;45.634;9.420;2023-01-01T04:17:50;209.32;;;112.43;;
53269;SDS011;39159;45.634;9.420;2023-01-01T04:20:16;204.32;;;109.75;;
53269;SDS011;39159;45.634;9.420;2023-01-01T04:22:41;180.88;;;99.40;;
53269;SDS011;39159;45.634;9.420;2023-01-01T04:25:08;196.57;;;105.68;;
53269;SDS011;39159;45.634;9.420;2023-01-01T04:27:35;189.27;;;105.20;;
53269;SDS011;39159;45.634;9.420;2023-01-01T04:30:01;188.82;;;104.22;;
53269;SDS011;39159;45.634;9.420;2023-01-01T04:32:28;185.77;;;104.20;;
53269;SDS011;39159;45.634;9.420;2023-01-01T04:34:54;176.85;;;99.53;;
53269;SDS011;39159;45.634;9.420;2023-01-01T04:37:19;190.93;;;105.60;;
53269;SDS011;39159;45.634;9.420;2023-01-01T04:39:45;204.32;;;109.53;;
53269;SDS011;39159;45.634;9.420;2023-01-01T04:42:10;180.68;;;99.07;;
53269;SDS011;39159;45.634;9.420;2023-01-01T04:44:36;172.55;;;98.20;;
53269;SDS011;39159;45.634;9.420;2023-01-01T04:47:01;160.25;;;92.25;;
53269;SDS011;39159;45.634;9.420;2023-01-01T04:49:27;163.88;;;92.00;;
53269;SDS011;39159;45.634;9.420;2023-01-01T04:51:52;174.60;;;94.07;;
53269;SDS011;39159;45.634;9.420;2023-01-01T04:54:17;154.40;;;88.63;;
53269;SDS011;39159;45.634;9.420;2023-01-01T04:56:43;153.52;;;86.82;;
53269;SDS011;39159;45.634;9.420;2023-01-01T04:59:08;152.60;;;88.47;;
53269;SDS011;39159;45.634;9.420;2023-01-01T05:01:34;143.20;;;81.22;;
53269;SDS011;39159;45.634;9.420;2023-01-01T05:03:59;155.98;;;87.10;;
53269;SDS011;39159;45.634;9.420;2023-01-01T05:06:25;145.20;;;83.57;;
53269;SDS011;39159;45.634;9.420;2023-01-01T05:08:52;155.23;;;86.22;;
53269;SDS011;39159;45.634;9.420;2023-01-01T05:11:22;150.43;;;86.10;;
53269;SDS011;39159;45.634;9.420;2023-01-01T05:13:50;141.38;;;83.18;;
53269;SDS011;39159;45.634;9.420;2023-01-01T05:16:19;153.93;;;88.45;;
53269;SDS011;39159;45.634;9.420;2023-01-01T05:18:46;153.18;;;88.65;;
53269;SDS011;39159;45.634;9.420;2023-01-01T05:21:13;153.50;;;88.57;;
53269;SDS011;39159;45.634;9.420;2023-01-01T05:23:42;164.93;;;92.55;;
53269;SDS011;39159;45.634;9.420;2023-01-01T05:26:12;158.20;;;92.40;;
53269;SDS011;39159;45.634;9.420;2023-01-01T05:28:42;156.40;;;89.93;;
53269;SDS011;39159;45.634;9.420;2023-01-01T05:31:10;142.25;;;85.10;;
53269;SDS011;39159;45.634;9.420;2023-01-01T05:33:37;172.68;;;94.43;;
53269;SDS011;39159;45.634;9.420;2023-01-01T05:36:03;151.63;;;85.78;;
53269;SDS011;39159;45.634;9.420;2023-01-01T05:38:30;152.65;;;85.25;;
53269;SDS011;39159;45.634;9.420;2023-01-01T05:40:56;155.52;;;87.38;;
53269;SDS011;39159;45.634;9.420;2023-01-01T05:43:21;155.25;;;85.68;;
53269;SDS011;39159;45.634;9.420;2023-01-01T05:45:47;150.30;;;87.22;;
53269;SDS011;39159;45.634;9.420;2023-01-01T05:48:12;150.35;;;85.03;;
53269;SDS011;39159;45.634;9.420;2023-01-01T05:50:38;143.95;;;84.18;;
53269;SDS011;39159;45.634;9.420;2023-01-01T05:53:03;128.85;;;76.40;;
53269;SDS011;39159;45.634;9.420;2023-01-01T05:55:29;133.15;;;78.90;;
53269;SDS011;39159;45.634;9.420;2023-01-01T05:57:55;141.57;;;82.13;;
53269;SDS011;39159;45.634;9.420;2023-01-01T06:00:20;139.98;;;79.82;;
53269;SDS011;39159;45.634;9.420;2023-01-01T06:02:46;123.68;;;74.55;;
53269;SDS011;39159;45.634;9.420;2023-01-01T06:05:13;137.65;;;78.57;;
53269;SDS011;39159;45.634;9.420;2023-01-01T06:07:39;121.70;;;71.85;;
53269;SDS011;39159;45.634;9.420;2023-01-01T06:10:05;123.43;;;74.75;;
53269;SDS011;39159;45.634;9.420;2023-01-01T06:12:30;111.05;;;67.78;;
53269;SDS011;39159;45.634;9.420;2023-01-01T06:14:56;129.70;;;72.45;;
53269;SDS011;39159;45.634;9.420;2023-01-01T06:17:21;118.07;;;70.15;;
53269;SDS011;39159;45.634;9.420;2023-01-01T06:19:47;113.68;;;68.03;;
53269;SDS011;39159;45.634;9.420;2023-01-01T06:22:12;120.30;;;71.57;;
53269;SDS011;39159;45.634;9.420;2023-01-01T06:24:38;108.70;;;65.25;;
53269;SDS011;39159;45.634;9.420;2023-01-01T06:27:03;124.70;;;72.72;;
53269;SDS011;39159;45.634;9.420;2023-01-01T06:29:28;122.15;;;71.95;;
53269;SDS011;39159;45.634;9.420;2023-01-01T06:31:54;113.85;;;68.60;;
53269;SDS011;39159;45.634;9.420;2023-01-01T06:34:19;116.82;;;68.55;;
53269;SDS011;39159;45.634;9.420;2023-01-01T06:36:45;113.63;;;65.82;;
53269;SDS011;39159;45.634;9.420;2023-01-01T06:39:10;117.55;;;68.00;;
53269;SDS011;39159;45.634;9.420;2023-01-01T06:41:36;110.18;;;65.35;;
53269;SDS011;39159;45.634;9.420;2023-01-01T06:44:01;109.40;;;64.47;;
53269;SDS011;39159;45.634;9.420;2023-01-01T06:46:28;118.00;;;69.43;;
53269;SDS011;39159;45.634;9.420;2023-01-01T06:48:56;122.10;;;68.50;;
53269;SDS011;39159;45.634;9.420;2023-01-01T06:51:24;107.68;;;63.28;;
53269;SDS011;39159;45.634;9.420;2023-01-01T06:53:52;115.93;;;67.38;;
53269;SDS011;39159;45.634;9.420;2023-01-01T06:56:19;122.53;;;71.55;;
53269;SDS011;39159;45.634;9.420;2023-01-01T06:58:44;109.72;;;65.40;;
53269;SDS011;39159;45.634;9.420;2023-01-01T07:01:14;111.93;;;68.43;;
53269;SDS011;39159;45.634;9.420;2023-01-01T07:03:42;118.28;;;67.63;;
53269;SDS011;39159;45.634;9.420;2023-01-01T07:06:08;119.50;;;67.63;;
53269;SDS011;39159;45.634;9.420;2023-01-01T07:08:34;122.57;;;67.22;;
53269;SDS011;39159;45.634;9.420;2023-01-01T07:11:00;116.90;;;68.45;;
53269;SDS011;39159;45.634;9.420;2023-01-01T07:13:27;125.97;;;69.78;;
53269;SDS011;39159;45.634;9.420;2023-01-01T07:15:53;123.57;;;71.60;;
53269;SDS011;39159;45.634;9.420;2023-01-01T07:18:22;117.28;;;67.70;;
53269;SDS011;39159;45.634;9.420;2023-01-01T07:20:49;113.63;;;64.72;;
53269;SDS011;39159;45.634;9.420;2023-01-01T07:23:16;114.00;;;64.68;;
53269;SDS011;39159;45.634;9.420;2023-01-01T07:25:42;118.03;;;67.28;;
53269;SDS011;39159;45.634;9.420;2023-01-01T07:28:07;113.28;;;64.88;;
53269;SDS011;39159;45.634;9.420;2023-01-01T07:30:33;112.68;;;62.97;;
53269;SDS011;39159;45.634;9.420;2023-01-01T07:32:58;116.30;;;64.03;;
53269;SDS011;39159;45.634;9.420;2023-01-01T07:35:24;116.43;;;62.70;;
53269;SDS011;39159;45.634;9.420;2023-01-01T07:37:49;115.45;;;63.45;;
53269;SDS011;39159;45.634;9.420;2023-01-01T07:40:15;106.00;;;60.22;;
53269;SDS011;39159;45.634;9.420;2023-01-01T07:42:40;109.43;;;60.85;;
53269;SDS011;39159;45.634;9.420;2023-01-01T07:45:06;96.72;;;58.13;;
53269;SDS011;39159;45.634;9.420;2023-01-01T07:47:31;102.05;;;56.28;;
53269;SDS011;39159;45.634;9.420;2023-01-01T07:49:57;99.65;;;56.30;;
53269;SDS011;39159;45.634;9.420;2023-01-01T07:52:22;97.10;;;55.63;;
53269;SDS011;39159;45.634;9.420;2023-01-01T07:54:48;105.88;;;61.53;;
53269;SDS011;39159;45.634;9.420;2023-01-01T07:57:13;101.25;;;59.22;;
53269;SDS011;39159;45.634;9.420;2023-01-01T07:59:39;98.50;;;55.88;;
53269;SDS011;39159;45.634;9.420;2023-01-01T08:02:05;101.25;;;55.97;;
53269;SDS011;39159;45.634;9.420;2023-01-01T08:04:30;103.05;;;58.55;;
53269;SDS011;39159;45.634;9.420;2023-01-01T08:06:56;96.05;;;52.85;;
53269;SDS011;39159;45.634;9.420;2023-01-01T08:09:21;92.55;;;51.95;;
53269;SDS011;39159;45.634;9.420;2023-01-01T08:11:47;93.30;;;52.70;;
53269;SDS011;39159;45.634;9.420;2023-01-01T08:14:12;93.05;;;52.70;;
53269;SDS011;39159;45.634;9.420;2023-01-01T08:16:38;91.97;;;53.53;;
53269;SDS011;39159;45.634;9.420;2023-01-01T08:19:03;94.80;;;51.03;;
53269;SDS011;39159;45.634;9.420;2023-01-01T08:21:29;95.72;;;52.28;;
53269;SDS011;39159;45.634;9.420;2023-01-01T08:23:55;92.32;;;50.72;;
53269;SDS011;39159;45.634;9.420;2023-01-01T08:26:28;85.53;;;49.30;;
53269;SDS011;39159;45.634;9.420;2023-01-01T08:28:58;85.40;;;47.55;;
53269;SDS011;39159;45.634;9.420;2023-01-01T08:31:25;91.50;;;50.00;;
53269;SDS011;39159;45.634;9.420;2023-01-01T08:33:51;82.10;;;45.22;;
53269;SDS011;39159;45.634;9.420;2023-01-01T08:36:16;85.25;;;48.42;;
53269;SDS011;39159;45.634;9.420;2023-01-01T08:38:43;86.53;;;47.83;;
53269;SDS011;39159;45.634;9.420;2023-01-01T08:41:09;85.95;;;50.15;;
53269;SDS011;39159;45.634;9.420;2023-01-01T08:43:34;93.22;;;51.00;;
53269;SDS011;39159;45.634;9.420;2023-01-01T08:46:00;89.43;;;48.97;;
53269;SDS011;39159;45.634;9.420;2023-01-01T08:48:25;83.95;;;49.33;;
53269;SDS011;39159;45.634;9.420;2023-01-01T08:50:52;85.30;;;48.65;;
53269;SDS011;39159;45.634;9.420;2023-01-01T08:53:17;81.75;;;48.92;;
53269;SDS011;39159;45.634;9.420;2023-01-01T08:55:43;84.55;;;49.30;;
53269;SDS011;39159;45.634;9.420;2023-01-01T08:58:08;77.68;;;46.75;;
53269;SDS011;39159;45.634;9.420;2023-01-01T09:00:34;78.53;;;47.47;;
53269;SDS011;39159;45.634;9.420;2023-01-01T09:02:59;89.18;;;50.42;;
53269;SDS011;39159;45.634;9.420;2023-01-01T09:05:25;87.82;;;51.15;;
53269;SDS011;39159;45.634;9.420;2023-01-01T09:07:50;87.20;;;50.25;;
53269;SDS011;39159;45.634;9.420;2023-01-01T09:10:16;84.35;;;49.55;;
53269;SDS011;39159;45.634;9.420;2023-01-01T09:12:41;88.28;;;50.53;;
53269;SDS011;39159;45.634;9.420;2023-01-01T09:15:11;87.85;;;51.55;;
53269;SDS011;39159;45.634;9.420;2023-01-01T09:17:40;85.47;;;49.67;;
53269;SDS011;39159;45.634;9.420;2023-01-01T09:20:05;85.82;;;49.20;;
53269;SDS011;39159;45.634;9.420;2023-01-01T09:22:32;85.13;;;49.55;;
53269;SDS011;39159;45.634;9.420;2023-01-01T09:24:57;78.15;;;47.65;;
53269;SDS011;39159;45.634;9.420;2023-01-01T09:27:23;78.70;;;47.70;;
53269;SDS011;39159;45.634;9.420;2023-01-01T09:29:48;76.25;;;46.30;;
53269;SDS011;39159;45.634;9.420;2023-01-01T09:32:14;78.65;;;47.10;;
53269;SDS011;39159;45.634;9.420;2023-01-01T09:34:39;84.38;;;46.38;;
53269;SDS011;39159;45.634;9.420;2023-01-01T09:37:04;77.68;;;44.72;;
53269;SDS011;39159;45.634;9.420;2023-01-01T09:39:30;78.00;;;45.33;;
53269;SDS011;39159;45.634;9.420;2023-01-01T09:47:23;72.68;;;43.45;;
53269;SDS011;39159;45.634;9.420;2023-01-01T09:49:50;71.25;;;42.17;;
53269;SDS011;39159;45.634;9.420;2023-01-01T09:52:19;67.97;;;40.97;;
53269;SDS011;39159;45.634;9.420;2023-01-01T09:57:13;73.07;;;41.40;;
53269;SDS011;39159;45.634;9.420;2023-01-01T09:59:38;68.03;;;41.50;;
53269;SDS011;39159;45.634;9.420;2023-01-01T10:10:23;65.85;;;40.78;;
53269;SDS011;39159;45.634;9.420;2023-01-01T10:13:01;64.95;;;39.47;;
53269;SDS011;39159;45.634;9.420;2023-01-01T10:15:57;62.95;;;36.55;;
53269;SDS011;39159;45.634;9.420;2023-01-01T10:18:26;64.63;;;39.03;;
53269;SDS011;39159;45.634;9.420;2023-01-01T10:23:39;60.92;;;36.42;;
53269;SDS011;39159;45.634;9.420;2023-01-01T10:26:14;78.72;;;46.00;;
53269;SDS011;39159;45.634;9.420;2023-01-01T10:31:34;92.40;;;51.72;;
53269;SDS011;39159;45.634;9.420;2023-01-01T10:34:03;83.88;;;49.63;;
53269;SDS011;39159;45.634;9.420;2023-01-01T10:36:39;88.35;;;53.53;;
53269;SDS011;39159;45.634;9.420;2023-01-01T10:39:04;92.13;;;52.17;;
53269;SDS011;39159;45.634;9.420;2023-01-01T10:41:30;87.22;;;51.53;;
53269;SDS011;39159;45.634;9.420;2023-01-01T10:43:55;89.32;;;51.15;;
53269;SDS011;39159;45.634;9.420;2023-01-01T10:46:21;89.18;;;51.90;;
53269;SDS011;39159;45.634;9.420;2023-01-01T10:49:31;85.60;;;52.88;;
53269;SDS011;39159;45.634;9.420;2023-01-01T10:51:42;88.13;;;51.85;;
53269;SDS011;39159;45.634;9.420;2023-01-01T10:54:43;89.07;;;53.80;;
53269;SDS011;39159;45.634;9.420;2023-01-01T10:59:40;86.95;;;51.20;;
53269;SDS011;39159;45.634;9.420;2023-01-01T11:02:13;86.35;;;52.25;;
53269;SDS011;39159;45.634;9.420;2023-01-01T11:04:38;86.07;;;53.15;;
53269;SDS011;39159;45.634;9.420;2023-01-01T11:07:05;84.55;;;49.90;;
53269;SDS011;39159;45.634;9.420;2023-01-01T11:09:31;82.63;;;48.78;;
53269;SDS011;39159;45.634;9.420;2023-01-01T11:12:01;85.72;;;50.00;;
53269;SDS011;39159;45.634;9.420;2023-01-01T11:16:54;82.93;;;50.35;;
53269;SDS011;39159;45.634;9.420;2023-01-01T11:19:31;86.50;;;51.20;;
53269;SDS011;39159;45.634;9.420;2023-01-01T11:22:00;83.35;;;51.53;;
53269;SDS011;39159;45.634;9.420;2023-01-01T11:24:27;85.70;;;50.42;;
53269;SDS011;39159;45.634;9.420;2023-01-01T11:27:10;82.43;;;48.67;;
53269;SDS011;39159;45.634;9.420;2023-01-01T11:29:44;82.30;;;49.25;;
53269;SDS011;39159;45.634;9.420;2023-01-01T11:32:11;81.22;;;48.25;;
53269;SDS011;39159;45.634;9.420;2023-01-01T11:34:43;80.03;;;48.55;;
53269;SDS011;39159;45.634;9.420;2023-01-01T11:39:43;77.53;;;46.73;;
53269;SDS011;39159;45.634;9.420;2023-01-01T11:42:19;76.80;;;46.08;;
53269;SDS011;39159;45.634;9.420;2023-01-01T11:44:51;80.93;;;46.90;;
53269;SDS011;39159;45.634;9.420;2023-01-01T11:47:38;74.82;;;44.47;;
53269;SDS011;39159;45.634;9.420;2023-01-01T11:50:12;69.65;;;44.08;;
53269;SDS011;39159;45.634;9.420;2023-01-01T11:53:15;71.60;;;43.95;;
53269;SDS011;39159;45.634;9.420;2023-01-01T11:55:45;69.55;;;42.22;;
53269;SDS011;39159;45.634;9.420;2023-01-01T12:00:55;67.32;;;41.67;;
53269;SDS011;39159;45.634;9.420;2023-01-01T12:03:27;62.28;;;39.90;;
53269;SDS011;39159;45.634;9.420;2023-01-01T12:08:38;62.75;;;38.70;;
53269;SDS011;39159;45.634;9.420;2023-01-01T12:13:49;66.28;;;39.83;;
53269;SDS011;39159;45.634;9.420;2023-01-01T12:16:23;58.85;;;37.83;;
53269;SDS011;39159;45.634;9.420;2023-01-01T12:19:05;60.60;;;38.30;;
53269;SDS011;39159;45.634;9.420;2023-01-01T12:21:38;64.60;;;40.30;;
53269;SDS011;39159;45.634;9.420;2023-01-01T12:24:10;71.03;;;40.53;;
53269;SDS011;39159;45.634;9.420;2023-01-01T12:40:55;67.20;;;40.70;;
53269;SDS011;39159;45.634;9.420;2023-01-01T12:43:41;68.70;;;41.05;;
53269;SDS011;39159;45.634;9.420;2023-01-01T12:46:18;69.95;;;41.58;;
53269;SDS011;39159;45.634;9.420;2023-01-01T12:48:59;71.75;;;41.17;;
53269;SDS011;39159;45.634;9.420;2023-01-01T12:54:26;65.95;;;38.15;;
53269;SDS011;39159;45.634;9.420;2023-01-01T12:57:13;66.22;;;38.95;;
53269;SDS011;39159;45.634;9.420;2023-01-01T12:59:50;62.15;;;38.15;;
53269;SDS011;39159;45.634;9.420;2023-01-01T13:02:19;63.63;;;38.42;;
53269;SDS011;39159;45.634;9.420;2023-01-01T13:04:49;59.22;;;36.00;;
53269;SDS011;39159;45.634;9.420;2023-01-01T13:07:22;61.45;;;36.42;;
53269;SDS011;39159;45.634;9.420;2023-01-01T13:09:55;62.72;;;36.08;;
53269;SDS011;39159;45.634;9.420;2023-01-01T13:12:24;60.58;;;36.83;;
53269;SDS011;39159;45.634;9.420;2023-01-01T13:14:50;57.88;;;36.03;;
53269;SDS011;39159;45.634;9.420;2023-01-01T13:17:17;60.58;;;36.20;;
53269;SDS011;39159;45.634;9.420;2023-01-01T13:19:45;73.53;;;40.05;;
53269;SDS011;39159;45.634;9.420;2023-01-01T13:44:16;64.25;;;37.17;;
53269;SDS011;39159;45.634;9.420;2023-01-01T13:49:44;66.03;;;37.35;;
53269;SDS011;39159;45.634;9.420;2023-01-01T14:03:47;62.70;;;35.15;;
53269;SDS011;39159;45.634;9.420;2023-01-01T14:09:08;62.72;;;34.78;;
53269;SDS011;39159;45.634;9.420;2023-01-01T14:11:37;62.60;;;34.55;;
53269;SDS011;39159;45.634;9.420;2023-01-01T14:14:16;63.92;;;37.58;;
53269;SDS011;39159;45.634;9.420;2023-01-01T14:16:56;68.05;;;36.90;;
53269;SDS011;39159;45.634;9.420;2023-01-01T14:19:24;64.35;;;35.72;;
53269;SDS011;39159;45.634;9.420;2023-01-01T14:21:51;62.35;;;35.50;;
53269;SDS011;39159;45.634;9.420;2023-01-01T14:24:17;60.92;;;35.05;;
53269;SDS011;39159;45.634;9.420;2023-01-01T14:26:45;62.75;;;35.80;;
53269;SDS011;39159;45.634;9.420;2023-01-01T14:29:16;64.43;;;35.28;;
53269;SDS011;39159;45.634;9.420;2023-01-01T14:31:53;60.97;;;35.20;;
53269;SDS011;39159;45.634;9.420;2023-01-01T14:34:25;59.70;;;34.25;;
53269;SDS011;39159;45.634;9.420;2023-01-01T14:36:51;64.63;;;36.95;;
53269;SDS011;39159;45.634;9.420;2023-01-01T14:39:28;63.38;;;36.75;;
53269;SDS011;39159;45.634;9.420;2023-01-01T14:41:58;61.17;;;35.20;;
53269;SDS011;39159;45.634;9.420;2023-01-01T14:44:31;66.15;;;36.03;;
53269;SDS011;39159;45.634;9.420;2023-01-01T14:47:02;64.55;;;34.25;;
53269;SDS011;39159;45.634;9.420;2023-01-01T14:49:33;64.35;;;36.60;;
53269;SDS011;39159;45.634;9.420;2023-01-01T14:52:04;69.63;;;38.08;;
53269;SDS011;39159;45.634;9.420;2023-01-01T14:54:34;67.28;;;37.05;;
53269;SDS011;39159;45.634;9.420;2023-01-01T14:57:02;66.03;;;37.30;;
53269;SDS011;39159;45.634;9.420;2023-01-01T14:59:35;72.70;;;40.20;;
53269;SDS011;39159;45.634;9.420;2023-01-01T15:02:01;67.97;;;36.53;;
53269;SDS011;39159;45.634;9.420;2023-01-01T15:04:37;72.78;;;38.10;;
53269;SDS011;39159;45.634;9.420;2023-01-01T15:07:03;72.18;;;39.65;;
53269;SDS011;39159;45.634;9.420;2023-01-01T15:09:29;69.00;;;37.97;;
53269;SDS011;39159;45.634;9.420;2023-01-01T15:11:56;72.28;;;39.88;;
53269;SDS011;39159;45.634;9.420;2023-01-01T15:14:36;74.57;;;40.88;;
53269;SDS011;39159;45.634;9.420;2023-01-01T15:19:30;70.90;;;38.20;;
53269;SDS011;39159;45.634;9.420;2023-01-01T15:21:56;74.72;;;39.22;;
53269;SDS011;39159;45.634;9.420;2023-01-01T15:24:23;72.22;;;39.40;;
53269;SDS011;39159;45.634;9.420;2023-01-01T15:26:58;82.63;;;41.97;;
53269;SDS011;39159;45.634;9.420;2023-01-01T15:32:03;76.03;;;39.00;;
53269;SDS011;39159;45.634;9.420;2023-01-01T15:34:37;70.55;;;38.42;;
53269;SDS011;39159;45.634;9.420;2023-01-01T15:39:49;73.43;;;37.92;;
53269;SDS011;39159;45.634;9.420;2023-01-01T15:42:41;78.65;;;39.13;;
53269;SDS011;39159;45.634;9.420;2023-01-01T15:45:13;82.50;;;40.55;;
53269;SDS011;39159;45.634;9.420;2023-01-01T15:47:43;75.90;;;38.35;;
53269;SDS011;39159;45.634;9.420;2023-01-01T15:50:09;72.15;;;37.80;;
53269;SDS011;39159;45.634;9.420;2023-01-01T15:52:43;73.13;;;37.60;;
53269;SDS011;39159;45.634;9.420;2023-01-01T15:55:13;75.28;;;38.67;;
53269;SDS011;39159;45.634;9.420;2023-01-01T15:57:42;77.03;;;38.70;;
53269;SDS011;39159;45.634;9.420;2023-01-01T16:00:22;71.65;;;37.05;;
53269;SDS011;39159;45.634;9.420;2023-01-01T16:03:02;72.82;;;37.33;;
53269;SDS011;39159;45.634;9.420;2023-01-01T16:06:00;73.60;;;38.88;;
53269;SDS011;39159;45.634;9.420;2023-01-01T16:08:25;73.32;;;40.13;;
53269;SDS011;39159;45.634;9.420;2023-01-01T16:10:51;73.13;;;38.53;;
53269;SDS011;39159;45.634;9.420;2023-01-01T16:13:17;72.70;;;38.15;;
53269;SDS011;39159;45.634;9.420;2023-01-01T16:15:49;84.75;;;41.63;;
53269;SDS011;39159;45.634;9.420;2023-01-01T16:18:17;78.07;;;39.47;;
53269;SDS011;39159;45.634;9.420;2023-01-01T16:20:43;90.57;;;40.75;;
53269;SDS011;39159;45.634;9.420;2023-01-01T16:23:09;74.57;;;38.35;;
53269;SDS011;39159;45.634;9.420;2023-01-01T16:25:35;80.95;;;42.47;;
53269;SDS011;39159;45.634;9.420;2023-01-01T16:28:01;73.10;;;37.42;;
53269;SDS011;39159;45.634;9.420;2023-01-01T16:30:28;74.07;;;36.25;;
53269;SDS011;39159;45.634;9.420;2023-01-01T16:32:53;67.15;;;36.10;;
53269;SDS011;39159;45.634;9.420;2023-01-01T16:35:19;72.45;;;37.63;;
53269;SDS011;39159;45.634;9.420;2023-01-01T16:37:45;67.32;;;36.90;;